sensor_id;sensor_type;location;lat;lon;timestamp;pressure;altitude;pressure_sealevel;temperature;humidity
14902;BME280;7542;49.078;9.194;2023-03-23T00:00:58;97983.09;;;28.39;29.53
14902;BME280;7542;49.078;9.194;2023-03-23T01:22:16;97914.56;;;27.85;30.33
14902;BME280;7542;49.078;9.194;2023-03-23T01:23:17;97921.03;;;27.84;30.34
14902;BME280;7542;49.078;9.194;2023-03-23T01:24:18;97919.75;;;27.81;30.43
14902;BME280;7542;49.078;9.194;2023-03-23T01:25:19;97917.56;;;27.83;30.32
14902;BME280;7542;49.078;9.194;2023-03-23T01:26:24;97911.25;;;27.88;30.61
14902;BME280;7542;49.078;9.194;2023-03-23T01:27:25;97919.66;;;27.86;30.46
14902;BME280;7542;49.078;9.194;2023-03-23T01:28:26;97912.66;;;27.85;30.50
14902;BME280;7542;49.078;9.194;2023-03-23T01:29:27;97917.75;;;27.87;30.46
14902;BME280;7542;49.078;9.194;2023-03-23T01:30:29;97914.75;;;27.88;30.48
14902;BME280;7542;49.078;9.194;2023-03-23T01:31:30;97908.56;;;27.88;30.67
14902;BME280;7542;49.078;9.194;2023-03-23T01:32:31;97908.00;;;27.91;30.63
14902;BME280;7542;49.078;9.194;2023-03-23T01:33:32;97902.28;;;27.92;30.50
14902;BME280;7542;49.078;9.194;2023-03-23T01:34:33;97905.00;;;27.92;30.41
14902;BME280;7542;49.078;9.194;2023-03-23T01:35:37;97902.47;;;27.96;30.41
14902;BME280;7542;49.078;9.194;2023-03-23T01:36:38;97899.00;;;27.95;30.69
14902;BME280;7542;49.078;9.194;2023-03-23T01:37:39;97903.59;;;27.95;30.48
14902;BME280;7542;49.078;9.194;2023-03-23T02:35:54;97849.28;;;27.60;30.75
14902;BME280;7542;49.078;9.194;2023-03-23T02:37:08;97846.06;;;27.58;30.81
14902;BME280;7542;49.078;9.194;2023-03-23T02:38:18;97848.47;;;27.60;30.73
14902;BME280;7542;49.078;9.194;2023-03-23T02:39:29;97847.66;;;27.59;30.56
14902;BME280;7542;49.078;9.194;2023-03-23T02:40:48;97841.38;;;27.64;30.59
14902;BME280;7542;49.078;9.194;2023-03-23T02:42:05;97839.47;;;27.64;30.75
14902;BME280;7542;49.078;9.194;2023-03-23T02:43:12;97832.50;;;27.63;30.69
14902;BME280;7542;49.078;9.194;2023-03-23T02:44:16;97837.09;;;27.63;30.68
14902;BME280;7542;49.078;9.194;2023-03-23T02:45:20;97832.50;;;27.63;30.64
14902;BME280;7542;49.078;9.194;2023-03-23T02:46:24;97832.50;;;27.63;30.58
14902;BME280;7542;49.078;9.194;2023-03-23T02:47:29;97831.13;;;27.66;30.43
14902;BME280;7542;49.078;9.194;2023-03-23T02:48:31;97837.63;;;27.65;30.41
14902;BME280;7542;49.078;9.194;2023-03-23T02:49:35;97825.75;;;27.66;30.49
14902;BME280;7542;49.078;9.194;2023-03-23T02:50:40;97821.94;;;27.67;30.59
14902;BME280;7542;49.078;9.194;2023-03-23T02:51:46;97826.75;;;27.70;30.32
14902;BME280;7542;49.078;9.194;2023-03-23T02:52:50;97821.16;;;27.66;30.34
14902;BME280;7542;49.078;9.194;2023-03-23T02:53:55;97821.38;;;27.70;30.42
14902;BME280;7542;49.078;9.194;2023-03-23T02:54:59;97818.69;;;27.70;30.58
14902;BME280;7542;49.078;9.194;2023-03-23T02:56:02;97817.09;;;27.69;30.46
14902;BME280;7542;49.078;9.194;2023-03-23T02:57:03;97814.66;;;27.67;30.71
14902;BME280;7542;49.078;9.194;2023-03-23T02:58:05;97818.97;;;27.68;30.41
14902;BME280;7542;49.078;9.194;2023-03-23T02:59:06;97816.28;;;27.68;30.46
14902;BME280;7542;49.078;9.194;2023-03-23T03:00:10;97817.56;;;27.71;30.55
14902;BME280;7542;49.078;9.194;2023-03-23T03:02:38;97816.97;;;27.74;30.57
14902;BME280;7542;49.078;9.194;2023-03-23T03:03:41;97810.00;;;27.73;30.35
14902;BME280;7542;49.078;9.194;2023-03-23T03:11:48;97808.09;;;27.73;30.30
14902;BME280;7542;49.078;9.194;2023-03-23T03:13:09;97812.38;;;27.75;30.30
14902;BME280;7542;49.078;9.194;2023-03-23T03:14:29;97815.56;;;27.77;30.10
14902;BME280;7542;49.078;9.194;2023-03-23T03:16:06;97814.19;;;27.79;30.30
14902;BME280;7542;49.078;9.194;2023-03-23T03:17:24;97808.59;;;27.76;30.42
14902;BME280;7542;49.078;9.194;2023-03-23T03:18:39;97810.78;;;27.73;30.42
14902;BME280;7542;49.078;9.194;2023-03-23T03:19:47;97814.59;;;27.72;30.27
14902;BME280;7542;49.078;9.194;2023-03-23T03:20:54;97806.81;;;27.71;30.34
14902;BME280;7542;49.078;9.194;2023-03-23T03:22:00;97803.63;;;27.69;30.29
14902;BME280;7542;49.078;9.194;2023-03-23T03:23:02;97809.50;;;27.71;30.41
14902;BME280;7542;49.078;9.194;2023-03-23T03:24:06;97804.72;;;27.68;30.33
14902;BME280;7542;49.078;9.194;2023-03-23T03:25:13;97803.63;;;27.69;30.26
14902;BME280;7542;49.078;9.194;2023-03-23T03:26:16;97800.13;;;27.68;30.45
14902;BME280;7542;49.078;9.194;2023-03-23T03:27:20;97807.91;;;27.70;30.47
14902;BME280;7542;49.078;9.194;2023-03-23T03:28:21;97806.09;;;27.65;30.44
14902;BME280;7542;49.078;9.194;2023-03-23T03:29:28;97806.81;;;27.71;30.54
14902;BME280;7542;49.078;9.194;2023-03-23T03:30:35;97801.41;;;27.71;30.67
14902;BME280;7542;49.078;9.194;2023-03-23T03:31:40;97812.19;;;27.71;30.53
14902;BME280;7542;49.078;9.194;2023-03-23T03:32:50;97805.69;;;27.72;30.54
14902;BME280;7542;49.078;9.194;2023-03-23T03:33:53;97814.88;;;27.71;30.54
14902;BME280;7542;49.078;9.194;2023-03-23T03:34:54;97806.31;;;27.69;30.44
14902;BME280;7542;49.078;9.194;2023-03-23T03:36:02;97814.88;;;27.71;30.35
14902;BME280;7542;49.078;9.194;2023-03-23T03:37:05;97811.69;;;27.69;30.57
14902;BME280;7542;49.078;9.194;2023-03-23T03:38:08;97816.97;;;27.74;30.55
14902;BME280;7542;49.078;9.194;2023-03-23T03:39:10;97817.56;;;27.71;30.36
14902;BME280;7542;49.078;9.194;2023-03-23T03:40:17;97815.38;;;27.73;30.29
14902;BME280;7542;49.078;9.194;2023-03-23T03:41:19;97815.69;;;27.71;30.56
14902;BME280;7542;49.078;9.194;2023-03-23T03:42:20;97806.81;;;27.71;30.49
14902;BME280;7542;49.078;9.194;2023-03-23T03:43:21;97810.28;;;27.71;30.43
14902;BME280;7542;49.078;9.194;2023-03-23T03:44:22;97810.00;;;27.73;30.50
14902;BME280;7542;49.078;9.194;2023-03-23T03:45:23;97817.56;;;27.71;30.50
14902;BME280;7542;49.078;9.194;2023-03-23T03:46:24;97815.97;;;27.70;30.44
14902;BME280;7542;49.078;9.194;2023-03-23T03:47:27;97815.69;;;27.71;30.45
14902;BME280;7542;49.078;9.194;2023-03-23T03:48:28;97813.00;;;27.71;30.53
14902;BME280;7542;49.078;9.194;2023-03-23T03:49:29;97809.19;;;27.72;30.44
14902;BME280;7542;49.078;9.194;2023-03-23T03:50:29;97816.78;;;27.70;30.45
14902;BME280;7542;49.078;9.194;2023-03-23T03:51:31;97807.59;;;27.71;30.42
14902;BME280;7542;49.078;9.194;2023-03-23T03:52:33;97810.00;;;27.73;30.21
14902;BME280;7542;49.078;9.194;2023-03-23T03:53:34;97806.81;;;27.71;30.41
14902;BME280;7542;49.078;9.194;2023-03-23T03:54:36;97799.81;;;27.70;30.54
14902;BME280;7542;49.078;9.194;2023-03-23T03:55:37;97809.50;;;27.71;30.52
14902;BME280;7542;49.078;9.194;2023-03-23T03:56:38;97800.94;;;27.69;30.56
14902;BME280;7542;49.078;9.194;2023-03-23T03:57:42;97812.19;;;27.71;30.45
14902;BME280;7542;49.078;9.194;2023-03-23T03:58:44;97805.22;;;27.70;30.42
14902;BME280;7542;49.078;9.194;2023-03-23T03:59:45;97804.09;;;27.71;30.47
14902;BME280;7542;49.078;9.194;2023-03-23T04:00:46;97809.00;;;27.69;30.31
14902;BME280;7542;49.078;9.194;2023-03-23T04:01:48;97808.69;;;27.70;30.48
14902;BME280;7542;49.078;9.194;2023-03-23T04:02:54;97805.50;;;27.68;30.39
14902;BME280;7542;49.078;9.194;2023-03-23T04:03:55;97806.31;;;27.69;30.57
14902;BME280;7542;49.078;9.194;2023-03-23T04:04:57;97806.31;;;27.69;30.50
14902;BME280;7542;49.078;9.194;2023-03-23T04:05:57;97808.22;;;27.68;30.54
14902;BME280;7542;49.078;9.194;2023-03-23T04:07:00;97803.91;;;27.67;30.49
14902;BME280;7542;49.078;9.194;2023-03-23T04:08:03;97806.81;;;27.71;30.29
14902;BME280;7542;49.078;9.194;2023-03-23T04:09:05;97805.50;;;27.68;30.50
14902;BME280;7542;49.078;9.194;2023-03-23T04:10:10;97810.59;;;27.70;30.29
14902;BME280;7542;49.078;9.194;2023-03-23T04:11:14;97812.78;;;27.68;30.45
14902;BME280;7542;49.078;9.194;2023-03-23T04:12:16;97814.97;;;27.66;30.37
14902;BME280;7542;49.078;9.194;2023-03-23T04:13:17;97822.25;;;27.65;30.52
14902;BME280;7542;49.078;9.194;2023-03-23T04:14:18;97818.47;;;27.66;30.33
14902;BME280;7542;49.078;9.194;2023-03-23T04:15:19;97819.25;;;27.67;30.42
14902;BME280;7542;49.078;9.194;2023-03-23T04:16:20;97820.34;;;27.66;30.43
14902;BME280;7542;49.078;9.194;2023-03-23T04:17:21;97819.56;;;27.65;30.46
14902;BME280;7542;49.078;9.194;2023-03-23T04:18:22;97820.63;;;27.64;30.44
14902;BME280;7542;49.078;9.194;2023-03-23T04:19:25;97814.97;;;27.66;30.33
14902;BME280;7542;49.078;9.194;2023-03-23T04:20:28;97816.88;;;27.65;30.30
14902;BME280;7542;49.078;9.194;2023-03-23T04:21:29;97802.06;;;27.63;30.44
14902;BME280;7542;49.078;9.194;2023-03-23T04:22:30;97808.78;;;27.65;30.46
14902;BME280;7542;49.078;9.194;2023-03-23T04:23:31;97809.84;;;27.64;30.35
14902;BME280;7542;49.078;9.194;2023-03-23T04:24:34;97810.97;;;27.63;30.26
14902;BME280;7542;49.078;9.194;2023-03-23T04:25:36;97808.56;;;27.62;30.40
14902;BME280;7542;49.078;9.194;2023-03-23T04:26:37;97808.56;;;27.62;30.43
14902;BME280;7542;49.078;9.194;2023-03-23T04:27:40;97807.78;;;27.61;30.44
14902;BME280;7542;49.078;9.194;2023-03-23T04:28:43;97804.59;;;27.59;30.29
14902;BME280;7542;49.078;9.194;2023-03-23T04:29:44;97806.97;;;27.61;30.30
14902;BME280;7542;49.078;9.194;2023-03-23T04:30:51;97813.94;;;27.62;30.33
14902;BME280;7542;49.078;9.194;2023-03-23T04:31:55;97804.28;;;27.61;30.51
14902;BME280;7542;49.078;9.194;2023-03-23T04:32:56;97800.47;;;27.62;30.50
14902;BME280;7542;49.078;9.194;2023-03-23T04:34:01;97808.56;;;27.62;30.48
14902;BME280;7542;49.078;9.194;2023-03-23T04:35:02;97806.97;;;27.61;30.45
14902;BME280;7542;49.078;9.194;2023-03-23T04:36:03;97807.78;;;27.61;30.27
14902;BME280;7542;49.078;9.194;2023-03-23T04:37:04;97798.91;;;27.61;30.46
14902;BME280;7542;49.078;9.194;2023-03-23T04:38:05;97803.47;;;27.60;30.47
14902;BME280;7542;49.078;9.194;2023-03-23T04:39:05;97801.59;;;27.61;30.42
14902;BME280;7542;49.078;9.194;2023-03-23T04:40:11;97797.31;;;27.60;30.29
14902;BME280;7542;49.078;9.194;2023-03-23T04:41:13;97807.59;;;27.58;30.46
14902;BME280;7542;49.078;9.194;2023-03-23T04:42:14;97808.06;;;27.60;30.49
14902;BME280;7542;49.078;9.194;2023-03-23T04:43:15;97808.06;;;27.60;30.40
14902;BME280;7542;49.078;9.194;2023-03-23T04:44:15;97809.97;;;27.59;30.42
14902;BME280;7542;49.078;9.194;2023-03-23T04:45:21;97808.88;;;27.60;30.64
14902;BME280;7542;49.078;9.194;2023-03-23T04:46:22;97807.28;;;27.59;30.43
14902;BME280;7542;49.078;9.194;2023-03-23T04:47:25;97813.47;;;27.60;30.51
14902;BME280;7542;49.078;9.194;2023-03-23T04:48:30;97818.34;;;27.58;30.44
14902;BME280;7542;49.078;9.194;2023-03-23T04:49:33;97817.25;;;27.59;30.37
14902;BME280;7542;49.078;9.194;2023-03-23T04:50:35;97819.16;;;27.58;30.39
14902;BME280;7542;49.078;9.194;2023-03-23T04:51:35;97812.97;;;27.58;30.42
14902;BME280;7542;49.078;9.194;2023-03-23T04:52:38;97815.34;;;27.59;30.79
14902;BME280;7542;49.078;9.194;2023-03-23T04:53:40;97825.34;;;27.59;30.47
14902;BME280;7542;49.078;9.194;2023-03-23T04:54:41;97821.84;;;27.58;30.58
14902;BME280;7542;49.078;9.194;2023-03-23T04:55:44;97825.34;;;27.59;30.51
14902;BME280;7542;49.078;9.194;2023-03-23T04:56:45;97818.34;;;27.58;30.56
14902;BME280;7542;49.078;9.194;2023-03-23T04:57:47;97827.22;;;27.58;30.60
14902;BME280;7542;49.078;9.194;2023-03-23T04:58:48;97815.66;;;27.58;30.56
14902;BME280;7542;49.078;9.194;2023-03-23T04:59:48;97816.16;;;27.60;30.28
14902;BME280;7542;49.078;9.194;2023-03-23T05:00:50;97828.03;;;27.59;30.66
14902;BME280;7542;49.078;9.194;2023-03-23T05:01:51;97826.44;;;27.58;30.44
14902;BME280;7542;49.078;9.194;2023-03-23T05:02:52;97821.03;;;27.58;30.51
14902;BME280;7542;49.078;9.194;2023-03-23T05:03:53;97821.53;;;27.60;30.69
14902;BME280;7542;49.078;9.194;2023-03-23T05:04:54;97817.25;;;27.59;30.45
14902;BME280;7542;49.078;9.194;2023-03-23T05:05:55;97822.63;;;27.59;30.61
14902;BME280;7542;49.078;9.194;2023-03-23T05:06:56;97813.47;;;27.60;30.44
14902;BME280;7542;49.078;9.194;2023-03-23T05:07:57;97815.66;;;27.58;30.41
14902;BME280;7542;49.078;9.194;2023-03-23T05:08:58;97818.84;;;27.60;30.49
14902;BME280;7542;49.078;9.194;2023-03-23T05:09:59;97815.53;;;27.63;30.45
14902;BME280;7542;49.078;9.194;2023-03-23T05:11:01;97817.75;;;27.61;30.34
14902;BME280;7542;49.078;9.194;2023-03-23T05:12:09;97809.06;;;27.64;30.06
14902;BME280;7542;49.078;9.194;2023-03-23T05:13:10;97803.19;;;27.62;30.26
14902;BME280;7542;49.078;9.194;2023-03-23T05:14:11;97809.06;;;27.64;30.43
14902;BME280;7542;49.078;9.194;2023-03-23T05:15:15;97810.16;;;27.63;30.20
14902;BME280;7542;49.078;9.194;2023-03-23T05:16:16;97810.16;;;27.63;30.21
14902;BME280;7542;49.078;9.194;2023-03-23T05:17:17;97805.38;;;27.60;30.46
14902;BME280;7542;49.078;9.194;2023-03-23T05:18:19;97814.44;;;27.64;30.11
14902;BME280;7542;49.078;9.194;2023-03-23T05:19:20;97809.38;;;27.62;30.30
14902;BME280;7542;49.078;9.194;2023-03-23T05:20:21;97818.75;;;27.65;30.57
14902;BME280;7542;49.078;9.194;2023-03-23T05:21:23;97815.53;;;27.63;30.20
14902;BME280;7542;49.078;9.194;2023-03-23T05:22:26;97818.47;;;27.66;30.25
14902;BME280;7542;49.078;9.194;2023-03-23T05:23:28;97815.53;;;27.63;30.32
14902;BME280;7542;49.078;9.194;2023-03-23T05:24:32;97814.16;;;27.65;30.24
14902;BME280;7542;49.078;9.194;2023-03-23T05:25:33;97817.66;;;27.66;30.19
14902;BME280;7542;49.078;9.194;2023-03-23T05:26:37;97824.16;;;27.65;30.35
14902;BME280;7542;49.078;9.194;2023-03-23T05:27:38;97831.41;;;27.64;30.41
14902;BME280;7542;49.078;9.194;2023-03-23T05:28:42;97828.72;;;27.64;30.37
14902;BME280;7542;49.078;9.194;2023-03-23T05:29:43;97819.84;;;27.64;30.39
14902;BME280;7542;49.078;9.194;2023-03-23T05:30:46;97824.94;;;27.65;30.40
14902;BME280;7542;49.078;9.194;2023-03-23T05:31:47;97821.47;;;27.65;30.31
14902;BME280;7542;49.078;9.194;2023-03-23T05:32:49;97817.94;;;27.64;30.56
14902;BME280;7542;49.078;9.194;2023-03-23T05:33:52;97818.75;;;27.65;30.43
14902;BME280;7542;49.078;9.194;2023-03-23T05:34:53;97816.06;;;27.65;30.57
14902;BME280;7542;49.078;9.194;2023-03-23T05:35:55;97821.47;;;27.65;30.37
14902;BME280;7542;49.078;9.194;2023-03-23T05:36:56;97816.06;;;27.65;30.59
14902;BME280;7542;49.078;9.194;2023-03-23T05:37:58;97823.06;;;27.66;30.58
14902;BME280;7542;49.078;9.194;2023-03-23T05:38:58;97820.94;;;27.63;30.46
14902;BME280;7542;49.078;9.194;2023-03-23T05:40:01;97817.13;;;27.64;30.55
14902;BME280;7542;49.078;9.194;2023-03-23T05:41:07;97816.34;;;27.63;30.61
14902;BME280;7542;49.078;9.194;2023-03-23T05:42:08;97810.16;;;27.63;30.62
14902;BME280;7542;49.078;9.194;2023-03-23T05:43:10;97810.97;;;27.63;30.44
14902;BME280;7542;49.078;9.194;2023-03-23T05:44:11;97815.06;;;27.61;30.63
14902;BME280;7542;49.078;9.194;2023-03-23T05:45:13;97817.13;;;27.64;30.60
14902;BME280;7542;49.078;9.194;2023-03-23T05:46:14;97819.84;;;27.64;30.69
14902;BME280;7542;49.078;9.194;2023-03-23T05:47:16;97827.91;;;27.64;30.73
14902;BME280;7542;49.078;9.194;2023-03-23T05:48:17;97815.53;;;27.63;30.53
14902;BME280;7542;49.078;9.194;2023-03-23T05:49:18;97823.13;;;27.61;30.62
14902;BME280;7542;49.078;9.194;2023-03-23T05:50:19;97822.81;;;27.62;30.58
14902;BME280;7542;49.078;9.194;2023-03-23T05:51:20;97827.13;;;27.63;30.61
14902;BME280;7542;49.078;9.194;2023-03-23T05:52:21;97822.81;;;27.62;30.50
14902;BME280;7542;49.078;9.194;2023-03-23T05:53:24;97831.72;;;27.63;30.50
14902;BME280;7542;49.078;9.194;2023-03-23T05:54:26;97837.09;;;27.63;30.67
14902;BME280;7542;49.078;9.194;2023-03-23T05:55:27;97837.09;;;27.63;30.54
14902;BME280;7542;49.078;9.194;2023-03-23T05:56:29;97837.88;;;27.63;30.73
14902;BME280;7542;49.078;9.194;2023-03-23T05:57:32;97836.28;;;27.62;30.45
14902;BME280;7542;49.078;9.194;2023-03-23T05:58:32;97840.59;;;27.63;30.39
14902;BME280;7542;49.078;9.194;2023-03-23T05:59:33;97839.28;;;27.61;30.59
14902;BME280;7542;49.078;9.194;2023-03-23T06:00:34;97849.47;;;27.64;30.58
14902;BME280;7542;49.078;9.194;2023-03-23T06:01:36;97847.06;;;27.62;30.34
14902;BME280;7542;49.078;9.194;2023-03-23T06:02:37;97860.22;;;27.64;30.42
14902;BME280;7542;49.078;9.194;2023-03-23T06:03:38;97857.03;;;27.62;30.49
14902;BME280;7542;49.078;9.194;2023-03-23T06:04:40;97864.03;;;27.63;30.25
14902;BME280;7542;49.078;9.194;2023-03-23T06:05:44;97866.16;;;27.66;30.36
14902;BME280;7542;49.078;9.194;2023-03-23T06:06:45;97867.25;;;27.65;30.47
14902;BME280;7542;49.078;9.194;2023-03-23T06:07:46;97871.81;;;27.64;30.50
14902;BME280;7542;49.078;9.194;2023-03-23T06:08:47;97872.63;;;27.65;30.28
14902;BME280;7542;49.078;9.194;2023-03-23T06:09:54;97879.59;;;27.66;30.36
14902;BME280;7542;49.078;9.194;2023-03-23T06:10:55;97873.69;;;27.64;30.34
14902;BME280;7542;49.078;9.194;2023-03-23T06:11:57;97873.44;;;27.65;30.49
14902;BME280;7542;49.078;9.194;2023-03-23T06:12:57;97885.56;;;27.63;30.21
14902;BME280;7542;49.078;9.194;2023-03-23T06:13:58;97887.97;;;27.64;30.31
14902;BME280;7542;49.078;9.194;2023-03-23T06:14:59;97885.78;;;27.66;30.40
14902;BME280;7542;49.078;9.194;2023-03-23T06:16:00;97893.34;;;27.64;30.51
14902;BME280;7542;49.078;9.194;2023-03-23T06:17:00;97887.97;;;27.64;30.39
14902;BME280;7542;49.078;9.194;2023-03-23T06:18:03;97882.56;;;27.64;30.62
14902;BME280;7542;49.078;9.194;2023-03-23T06:19:04;97885.00;;;27.66;30.40
14902;BME280;7542;49.078;9.194;2023-03-23T06:20:06;97893.34;;;27.64;30.38
14902;BME280;7542;49.078;9.194;2023-03-23T06:21:11;97895.78;;;27.66;30.62
14902;BME280;7542;49.078;9.194;2023-03-23T06:22:12;97900.38;;;27.65;30.46
14902;BME280;7542;49.078;9.194;2023-03-23T06:23:13;97892.56;;;27.64;30.39
14902;BME280;7542;49.078;9.194;2023-03-23T06:24:14;97892.56;;;27.64;30.45
14902;BME280;7542;49.078;9.194;2023-03-23T06:25:14;97908.72;;;27.64;30.42
14902;BME280;7542;49.078;9.194;2023-03-23T06:26:18;97904.66;;;27.66;30.48
14902;BME280;7542;49.078;9.194;2023-03-23T06:27:20;97910.34;;;27.65;30.37
14902;BME280;7542;49.078;9.194;2023-03-23T06:28:21;97912.19;;;27.64;30.38
14902;BME280;7542;49.078;9.194;2023-03-23T06:29:22;97912.72;;;27.66;30.09
14902;BME280;7542;49.078;9.194;2023-03-23T06:30:24;97910.34;;;27.65;30.34
14902;BME280;7542;49.078;9.194;2023-03-23T06:31:27;97915.41;;;27.66;30.39
14902;BME280;7542;49.078;9.194;2023-03-23T06:32:29;97918.41;;;27.65;30.52
14902;BME280;7542;49.078;9.194;2023-03-23T06:33:34;97918.41;;;27.65;30.33
14902;BME280;7542;49.078;9.194;2023-03-23T06:34:36;97920.00;;;27.66;30.34
14902;BME280;7542;49.078;9.194;2023-03-23T06:35:37;97917.31;;;27.66;30.39
14902;BME280;7542;49.078;9.194;2023-03-23T06:36:37;97921.13;;;27.65;30.58
14902;BME280;7542;49.078;9.194;2023-03-23T06:37:39;97918.41;;;27.65;30.38
14902;BME280;7542;49.078;9.194;2023-03-23T06:38:40;97921.13;;;27.65;30.57
14902;BME280;7542;49.078;9.194;2023-03-23T06:39:41;97920.00;;;27.66;30.39
14902;BME280;7542;49.078;9.194;2023-03-23T06:40:41;97920.00;;;27.66;30.36
14902;BME280;7542;49.078;9.194;2023-03-23T06:41:46;97923.50;;;27.66;30.39
14902;BME280;7542;49.078;9.194;2023-03-23T06:42:47;97918.13;;;27.66;30.22
14902;BME280;7542;49.078;9.194;2023-03-23T06:43:48;97919.22;;;27.65;30.58
14902;BME280;7542;49.078;9.194;2023-03-23T06:44:48;97923.50;;;27.66;30.37
14902;BME280;7542;49.078;9.194;2023-03-23T06:45:50;97919.50;;;27.64;30.59
14902;BME280;7542;49.078;9.194;2023-03-23T06:46:51;97919.72;;;27.67;30.41
14902;BME280;7542;49.078;9.194;2023-03-23T06:47:52;97921.13;;;27.65;30.54
14902;BME280;7542;49.078;9.194;2023-03-23T06:48:55;97920.53;;;27.68;30.47
14902;BME280;7542;49.078;9.194;2023-03-23T06:49:57;97917.31;;;27.66;30.46
14902;BME280;7542;49.078;9.194;2023-03-23T06:50:58;97921.59;;;27.67;30.43
14902;BME280;7542;49.078;9.194;2023-03-23T06:51:59;97920.00;;;27.66;30.50
14902;BME280;7542;49.078;9.194;2023-03-23T06:53:01;97916.53;;;27.65;30.52
14902;BME280;7542;49.078;9.194;2023-03-23T06:54:04;97917.31;;;27.66;30.46
14902;BME280;7542;49.078;9.194;2023-03-23T06:55:05;97914.63;;;27.66;30.33
14902;BME280;7542;49.078;9.194;2023-03-23T06:56:06;97907.34;;;27.66;30.59
14902;BME280;7542;49.078;9.194;2023-03-23T06:57:08;97916.75;;;27.69;30.44
14902;BME280;7542;49.078;9.194;2023-03-23T06:58:09;97907.88;;;27.68;30.43
14902;BME280;7542;49.078;9.194;2023-03-23T06:59:10;97914.31;;;27.67;30.38
14902;BME280;7542;49.078;9.194;2023-03-23T07:00:12;97907.06;;;27.68;30.48
14902;BME280;7542;49.078;9.194;2023-03-23T07:01:14;97910.25;;;27.70;30.54
14902;BME280;7542;49.078;9.194;2023-03-23T07:02:15;97905.19;;;27.68;30.50
14902;BME280;7542;49.078;9.194;2023-03-23T07:03:16;97916.22;;;27.67;30.52
14902;BME280;7542;49.078;9.194;2023-03-23T07:04:17;97903.56;;;27.67;30.61
14902;BME280;7542;49.078;9.194;2023-03-23T07:05:18;97914.31;;;27.67;30.55
14902;BME280;7542;49.078;9.194;2023-03-23T07:06:19;97910.25;;;27.70;30.50
14902;BME280;7542;49.078;9.194;2023-03-23T07:07:20;97911.34;;;27.69;30.59
14902;BME280;7542;49.078;9.194;2023-03-23T07:08:21;97915.94;;;27.68;30.58
14902;BME280;7542;49.078;9.194;2023-03-23T07:09:22;97914.06;;;27.69;30.54
14902;BME280;7542;49.078;9.194;2023-03-23T07:10:23;97917.03;;;27.67;30.66
14902;BME280;7542;49.078;9.194;2023-03-23T07:11:24;97915.16;;;27.68;30.61
14902;BME280;7542;49.078;9.194;2023-03-23T07:12:25;97921.84;;;27.70;30.64
14902;BME280;7542;49.078;9.194;2023-03-23T07:13:27;97922.63;;;27.71;30.55
14902;BME280;7542;49.078;9.194;2023-03-23T07:14:29;97927.53;;;27.69;30.76
14902;BME280;7542;49.078;9.194;2023-03-23T07:15:30;97929.91;;;27.70;30.67
14902;BME280;7542;49.078;9.194;2023-03-23T07:16:32;97938.78;;;27.71;30.57
14902;BME280;7542;49.078;9.194;2023-03-23T07:17:33;97935.00;;;27.72;30.57
14902;BME280;7542;49.078;9.194;2023-03-23T07:18:34;97932.59;;;27.70;30.57
14902;BME280;7542;49.078;9.194;2023-03-23T07:19:34;97938.78;;;27.71;30.59
14902;BME280;7542;49.078;9.194;2023-03-23T07:20:36;97936.91;;;27.71;30.75
14902;BME280;7542;49.078;9.194;2023-03-23T07:21:37;97943.09;;;27.72;30.55
14902;BME280;7542;49.078;9.194;2023-03-23T07:22:38;97943.09;;;27.72;30.53
14902;BME280;7542;49.078;9.194;2023-03-23T07:23:39;97945.78;;;27.72;30.76
14902;BME280;7542;49.078;9.194;2023-03-23T07:24:40;97948.47;;;27.72;30.80
14902;BME280;7542;49.078;9.194;2023-03-23T07:25:43;97950.56;;;27.75;30.60
14902;BME280;7542;49.078;9.194;2023-03-23T07:26:44;97946.28;;;27.74;30.74
14902;BME280;7542;49.078;9.194;2023-03-23T07:27:46;97952.47;;;27.75;30.63
14902;BME280;7542;49.078;9.194;2023-03-23T07:28:47;97947.06;;;27.75;30.85
14902;BME280;7542;49.078;9.194;2023-03-23T07:29:48;97958.63;;;27.75;30.79
14902;BME280;7542;49.078;9.194;2023-03-23T07:30:48;97963.22;;;27.75;30.88
14902;BME280;7542;49.078;9.194;2023-03-23T07:31:49;97962.94;;;27.76;30.93
14902;BME280;7542;49.078;9.194;2023-03-23T07:32:52;97964.53;;;27.77;30.84
14902;BME280;7542;49.078;9.194;2023-03-23T07:33:53;97967.22;;;27.77;30.91
14902;BME280;7542;49.078;9.194;2023-03-23T07:34:54;97968.81;;;27.78;30.85
14902;BME280;7542;49.078;9.194;2023-03-23T07:35:55;97971.25;;;27.80;30.80
14902;BME280;7542;49.078;9.194;2023-03-23T07:36:59;97973.13;;;27.79;30.81
14902;BME280;7542;49.078;9.194;2023-03-23T07:38:00;97970.44;;;27.79;30.75
14902;BME280;7542;49.078;9.194;2023-03-23T07:39:01;97980.91;;;27.81;30.75
14902;BME280;7542;49.078;9.194;2023-03-23T07:40:04;97977.94;;;27.82;30.80
14902;BME280;7542;49.078;9.194;2023-03-23T07:41:15;97979.03;;;27.81;30.75
14902;BME280;7542;49.078;9.194;2023-03-23T07:42:15;97986.81;;;27.83;30.88
14902;BME280;7542;49.078;9.194;2023-03-23T07:43:16;97993.00;;;27.83;30.74
14902;BME280;7542;49.078;9.194;2023-03-23T07:44:18;97986.81;;;27.83;30.66
14902;BME280;7542;49.078;9.194;2023-03-23T07:45:18;97989.81;;;27.81;30.81
14902;BME280;7542;49.078;9.194;2023-03-23T07:46:19;97985.72;;;27.84;30.70
14902;BME280;7542;49.078;9.194;2023-03-23T07:47:20;97983.00;;;27.84;30.74
14902;BME280;7542;49.078;9.194;2023-03-23T07:48:21;97987.31;;;27.85;30.85
14902;BME280;7542;49.078;9.194;2023-03-23T07:49:22;97980.03;;;27.85;30.72
14902;BME280;7542;49.078;9.194;2023-03-23T07:50:23;97978.91;;;27.86;30.85
14902;BME280;7542;49.078;9.194;2023-03-23T07:51:27;97987.50;;;27.88;30.64
14902;BME280;7542;49.078;9.194;2023-03-23T07:52:28;97986.41;;;27.89;30.77
14902;BME280;7542;49.078;9.194;2023-03-23T07:53:30;97982.09;;;27.88;30.82
14902;BME280;7542;49.078;9.194;2023-03-23T07:54:32;97989.41;;;27.88;30.71
14902;BME280;7542;49.078;9.194;2023-03-23T07:55:33;97985.41;;;27.85;30.67
14902;BME280;7542;49.078;9.194;2023-03-23T07:56:35;97985.59;;;27.89;30.83
14902;BME280;7542;49.078;9.194;2023-03-23T07:57:37;97988.03;;;27.90;30.71
14902;BME280;7542;49.078;9.194;2023-03-23T07:58:38;97982.34;;;27.92;30.78
14902;BME280;7542;49.078;9.194;2023-03-23T07:59:39;97990.13;;;27.93;30.75
14902;BME280;7542;49.078;9.194;2023-03-23T08:00:40;97992.00;;;27.93;30.88
14902;BME280;7542;49.078;9.194;2023-03-23T08:01:41;97990.91;;;27.94;30.77